.
WxDataArchive / Data Records for 2012-11-17
2012-11-16 November 2012 2012-11-18

Data Records for Saturday, 17 November 2012

Time	Temp	Chill	HIndex	Humid	Dewpt	 Wind 	HiWind	WindDir	Rain 	Barom 
-----	----	-----	------	-----	-----	------	------	-------	-----	----- 
00:00	27.6	27.6	27.6	85	23.7	0	0	---	0.00	30.517 
00:05	27.5	27.5	27.5	85	23.6	0	0	---	0.00	30.517 
00:10	27.3	27.3	27.3	86	23.7	0	0	---	0.00	30.517 
00:15	27.2	27.2	27.2	86	23.6	0	0	---	0.00	30.517 
00:20	27.2	27.2	27.2	86	23.6	0	0	---	0.00	30.517 
00:25	27.2	27.2	27.2	86	23.6	0	0	---	0.00	30.517 
00:30	27.2	27.2	27.2	86	23.6	0	0	---	0.00	30.518 
00:35	27.2	27.2	27.2	86	23.6	0	0	---	0.00	30.518 
00:40	27.0	27.0	27.0	87	23.7	0	0	---	0.00	30.518 
00:45	26.9	26.9	26.9	87	23.6	0	0	---	0.00	30.517 
00:50	26.9	26.9	26.9	87	23.6	0	0	---	0.00	30.517 
00:55	26.9	26.9	26.9	87	23.6	0	0	---	0.00	30.517 
01:00	26.9	26.9	26.9	87	23.6	0	0	---	0.00	30.520 
01:05	26.9	26.9	26.9	87	23.6	0	0	---	0.00	30.520 
01:10	26.9	26.9	26.9	87	23.6	0	0	---	0.00	30.520 
01:15	26.9	26.9	26.9	87	23.6	0	0	---	0.00	30.519 
01:20	26.9	26.9	26.9	87	23.6	0	0	---	0.00	30.519 
01:25	26.7	26.7	26.7	87	23.4	0	0	---	0.00	30.519 
01:30	26.7	26.7	26.7	87	23.4	0	0	---	0.00	30.519 
01:35	26.7	26.7	26.7	88	23.6	0	0	---	0.00	30.519 
01:40	26.6	26.6	26.6	88	23.5	0	0	---	0.00	30.519 
01:45	26.6	26.6	26.6	88	23.5	0	0	---	0.00	30.519 
01:50	26.4	26.4	26.4	88	23.3	0	0	---	0.00	30.519 
01:55	26.1	26.1	26.1	87	22.8	0	0	---	0.00	30.519 
02:00	26.0	26.0	26.0	87	22.7	0	0	---	0.00	30.518 
02:05	25.8	25.8	25.8	87	22.5	0	0	---	0.00	30.518 
02:10	25.8	25.8	25.8	88	22.7	0	0	---	0.00	30.518 
02:15	25.8	25.8	25.8	88	22.7	0	0	---	0.00	30.519 
02:20	25.8	25.8	25.8	88	22.7	0	0	---	0.00	30.519 
02:25	25.7	25.7	25.7	88	22.6	0	0	---	0.00	30.519 
02:30	25.7	25.7	25.7	88	22.6	0	0	---	0.00	30.519 
02:35	25.7	25.7	25.7	88	22.6	0	0	---	0.00	30.519 
02:40	25.7	25.7	25.7	88	22.6	0	0	---	0.00	30.519 
02:45	25.7	25.7	25.7	88	22.6	0	0	---	0.00	30.520 
02:50	25.7	25.7	25.7	88	22.6	0	0	---	0.00	30.520 
02:55	25.6	25.6	25.6	88	22.5	0	0	---	0.00	30.520 
03:00	25.6	25.6	25.6	88	22.5	0	0	---	0.00	30.520 
03:05	25.4	25.4	25.4	88	22.4	0	0	---	0.00	30.520 
03:10	25.4	25.4	25.4	88	22.4	0	0	---	0.00	30.520 
03:15	25.4	25.4	25.4	89	22.6	0	0	---	0.00	30.521 
03:20	25.4	25.4	25.4	89	22.6	0	0	---	0.00	30.521 
03:25	25.3	25.3	25.3	89	22.5	0	0	---	0.00	30.521 
03:30	25.1	25.1	25.1	88	22.1	0	0	---	0.00	30.520 
03:35	25.0	25.0	25.0	89	22.2	0	0	---	0.00	30.520 
03:40	25.1	25.1	25.1	89	22.3	0	0	---	0.00	30.520 
03:45	25.1	25.1	25.1	89	22.3	0	0	---	0.00	30.525 
03:50	25.1	25.1	25.1	89	22.3	0	0	---	0.00	30.525 
03:55	25.1	25.1	25.1	89	22.3	0	0	---	0.00	30.525 
04:00	25.1	25.1	25.1	89	22.3	0	0	---	0.00	30.528 
04:05	25.3	25.3	25.3	89	22.5	0	0	---	0.00	30.528 
04:10	25.3	25.3	25.3	89	22.5	0	0	---	0.00	30.528 
04:15	25.3	25.3	25.3	89	22.5	0	0	---	0.00	30.536 
04:20	25.3	25.3	25.3	89	22.5	0	0	---	0.00	30.536 
04:25	25.1	25.1	25.1	90	22.6	0	0	---	0.00	30.536 
04:30	25.1	25.1	25.1	90	22.6	0	0	---	0.00	30.538 
04:35	25.0	25.0	25.0	90	22.5	0	0	---	0.00	30.538 
04:40	25.0	25.0	25.0	90	22.5	0	0	---	0.00	30.538 
04:45	25.0	25.0	25.0	90	22.5	0	0	---	0.00	30.539 
04:50	24.8	24.8	24.8	90	22.3	0	0	---	0.00	30.539 
04:55	24.8	24.8	24.8	90	22.3	0	0	---	0.00	30.539 
05:00	24.8	24.8	24.8	90	22.3	0	0	---	0.00	30.546 
05:05	24.8	24.8	24.8	90	22.3	0	0	---	0.00	30.546 
05:10	24.8	24.8	24.8	90	22.3	0	0	---	0.00	30.546 
05:15	24.8	24.8	24.8	90	22.3	0	0	---	0.00	30.560 
05:20	24.7	24.7	24.7	90	22.2	0	0	---	0.00	30.560 
05:25	24.7	24.7	24.7	90	22.2	0	0	---	0.00	30.560 
05:30	24.7	24.7	24.7	90	22.2	0	0	---	0.00	30.563 
05:35	24.7	24.7	24.7	90	22.2	0	0	---	0.00	30.563 
05:40	24.5	24.5	24.5	90	22.0	0	0	---	0.00	30.563 
05:45	24.5	24.5	24.5	90	22.0	0	0	---	0.00	30.567 
05:50	24.5	24.5	24.5	90	22.0	0	0	---	0.00	30.567 
05:55	24.4	24.4	24.4	90	21.9	0	0	---	0.00	30.567 
06:00	24.2	24.2	24.2	90	21.7	0	0	---	0.00	30.570 
06:05	24.1	24.1	24.1	90	21.6	0	0	---	0.00	30.570 
06:10	23.9	23.9	23.9	90	21.4	0	0	---	0.00	30.570 
06:15	23.9	23.9	23.9	90	21.4	0	0	---	0.00	30.571 
06:20	23.9	23.9	23.9	91	21.7	0	0	---	0.00	30.571 
06:25	24.1	24.1	24.1	91	21.9	0	0	---	0.00	30.571 
06:30	24.1	24.1	24.1	91	21.9	0	0	---	0.00	30.574 
06:35	24.1	24.1	24.1	91	21.9	0	0	---	0.00	30.574 
06:40	24.1	24.1	24.1	91	21.9	0	0	---	0.00	30.574 
06:45	24.1	24.1	24.1	91	21.9	0	0	---	0.00	30.578 
06:50	23.9	23.9	23.9	91	21.7	0	0	---	0.00	30.578 
06:55	23.9	23.9	23.9	91	21.7	0	0	---	0.00	30.578 
07:00	23.9	23.9	23.9	91	21.7	0	0	---	0.00	30.581 
07:05	23.9	23.9	23.9	91	21.7	0	0	---	0.00	30.581 
07:10	23.9	23.9	23.9	91	21.7	0	0	---	0.00	30.581 
07:15	23.8	23.8	23.8	91	21.6	0	0	---	0.00	30.587 
07:20	23.8	23.8	23.8	91	21.6	0	0	---	0.00	30.587 
07:25	23.6	23.6	23.6	91	21.4	0	0	---	0.00	30.587 
07:30	23.6	23.6	23.6	91	21.4	0	0	---	0.00	30.590 
07:35	23.6	23.6	23.6	91	21.4	0	0	---	0.00	30.590 
07:40	23.6	23.6	23.6	91	21.4	0	0	---	0.00	30.590 
07:45	23.8	23.8	23.8	91	21.6	0	0	---	0.00	30.595 
07:50	23.8	23.8	23.8	91	21.6	0	0	---	0.00	30.595 
07:55	23.8	23.8	23.8	91	21.6	0	0	---	0.00	30.595 
08:00	23.8	23.8	23.8	91	21.6	0	0	---	0.00	30.598 
08:05	23.8	23.8	23.8	91	21.6	0	0	---	0.00	30.598 
08:10	24.1	24.1	24.1	92	22.1	0	0	---	0.00	30.598 
08:15	24.4	24.4	24.4	92	22.4	0	0	---	0.00	30.605 
08:20	24.8	24.8	24.8	92	22.8	0	0	---	0.00	30.605 
08:25	25.7	25.7	25.7	93	24.0	0	0	---	0.00	30.605 
08:30	26.3	26.3	26.3	93	24.6	0	0	---	0.00	30.609 
08:35	26.9	26.9	26.9	93	25.2	0	0	---	0.00	30.609 
08:40	27.5	27.5	27.5	93	25.7	0	0	---	0.00	30.609 
08:45	27.8	27.8	27.8	92	25.8	0	0	---	0.00	30.610 
08:50	28.2	28.2	28.2	93	26.4	0	1	90	0.00	30.610 
08:55	29.1	29.1	29.1	93	27.3	0	1	90	0.00	30.610 
09:00	30.1	30.1	30.1	93	28.3	0	2	90	0.00	30.610 
09:05	31.3	31.3	31.3	93	29.5	1	3	90	0.00	30.610 
09:10	32.2	32.2	32.2	92	30.1	0	1	90	0.00	30.610 
09:15	33.2	33.2	33.2	88	30.0	2	4	90	0.00	30.610 
09:20	34.0	34.0	34.0	85	30.0	1	4	90	0.00	30.610 
09:25	34.6	34.6	34.6	85	30.6	0	2	90	0.00	30.610 
09:30	34.9	34.9	34.9	84	30.6	0	1	90	0.00	30.621 
09:35	35.5	35.5	35.5	83	30.9	0	3	90	0.00	30.621 
09:40	36.0	36.0	36.0	81	30.7	0	2	90	0.00	30.621 
09:45	36.5	36.5	36.5	81	31.2	0	2	68	0.00	30.618 
09:50	37.0	37.0	37.0	80	31.4	0	1	68	0.00	30.618 
09:55	37.5	37.5	37.5	79	31.6	0	1	68	0.00	30.618 
10:00	37.8	37.8	37.8	77	31.2	0	3	68	0.00	30.618 
10:05	37.9	37.9	37.9	73	30.0	1	6	112	0.00	30.618 
10:10	38.3	38.3	38.3	73	30.4	1	4	112	0.00	30.618 
10:15	38.6	38.6	38.6	71	30.0	2	4	112	0.00	30.618 
10:20	39.1	39.1	39.1	70	30.2	2	5	112	0.00	30.618 
10:25	39.5	39.5	39.5	69	30.2	2	5	90	0.00	30.618 
10:30	39.9	39.9	39.9	69	30.6	1	4	90	0.00	30.618 
10:35	40.3	40.3	40.3	69	31.0	2	4	90	0.00	30.618 
10:40	40.8	40.8	40.8	70	31.8	0	2	90	0.00	30.618 
10:45	41.2	41.2	41.2	68	31.5	1	4	90	0.00	30.615 
10:50	41.5	41.5	41.5	66	31.0	1	4	90	0.00	30.615 
10:55	41.9	41.9	41.9	65	31.0	2	5	90	0.00	30.615 
11:00	42.2	42.2	42.2	64	30.9	2	4	90	0.00	30.607 
11:05	42.6	42.6	42.6	64	31.3	1	4	90	0.00	30.607 
11:10	42.9	42.9	42.9	62	30.8	1	4	90	0.00	30.607 
11:15	43.1	43.1	43.1	62	31.0	1	3	90	0.00	30.604 
11:20	43.3	43.3	43.3	59	29.9	2	6	90	0.00	30.604 
11:25	43.3	43.3	43.3	59	29.9	2	5	90	0.00	30.604 
11:30	43.6	43.6	43.6	59	30.2	1	4	90	0.00	30.600 
11:35	43.9	43.9	43.9	59	30.5	1	4	90	0.00	30.600 
11:40	44.2	44.2	44.2	59	30.8	1	4	90	0.00	30.600 
11:45	44.6	44.6	44.6	58	30.7	1	3	90	0.00	30.598 
11:50	44.9	44.9	44.9	58	31.0	2	4	90	0.00	30.598 
11:55	45.2	45.2	45.2	58	31.3	2	4	90	0.00	30.598 
12:00	45.5	45.5	45.5	57	31.2	1	3	90	0.00	30.588 
12:05	45.8	45.8	45.8	55	30.6	1	2	90	0.00	30.588 
12:10	46.1	46.1	46.1	54	30.4	1	3	135	0.00	30.588 
12:15	46.4	46.4	46.4	56	31.6	1	4	90	0.00	30.582 
12:20	46.5	46.5	46.5	54	30.8	1	2	112	0.00	30.582 
12:25	46.7	46.7	46.7	54	30.9	0	2	112	0.00	30.582 
12:30	47.0	47.0	47.0	54	31.2	1	5	90	0.00	30.571 
12:35	47.3	47.3	47.3	53	31.0	0	2	90	0.00	30.571 
12:40	47.6	47.6	47.6	52	30.9	1	4	112	0.00	30.571 
12:45	47.9	47.9	47.9	51	30.7	0	2	112	0.00	30.568 
12:50	48.2	48.2	48.2	50	30.4	1	3	112	0.00	30.568 
12:55	48.3	48.3	48.3	50	30.5	1	2	112	0.00	30.568 
13:00	48.5	48.5	48.5	48	29.7	2	5	90	0.00	30.564 
13:05	48.5	48.5	48.5	50	30.7	0	3	90	0.00	30.564 
13:10	48.8	48.8	48.8	48	30.0	2	4	90	0.00	30.564 
13:15	48.9	48.9	48.9	47	29.6	1	3	90	0.00	30.564 
13:20	49.2	49.2	49.2	46	29.3	2	5	112	0.00	30.564 
13:25	49.4	49.4	49.4	45	29.0	1	4	112	0.00	30.564 
13:30	49.5	49.5	49.5	45	29.0	1	5	90	0.00	30.558 
13:35	49.8	49.8	49.8	46	29.9	1	3	90	0.00	30.558 
13:40	50.1	50.1	50.1	45	29.6	1	4	90	0.00	30.558 
13:45	50.1	50.1	50.1	45	29.6	1	6	90	0.00	30.550 
13:50	50.2	50.2	50.2	46	30.2	1	3	90	0.00	30.550 
13:55	50.4	50.4	50.4	46	30.4	1	5	90	0.00	30.550 
14:00	50.4	50.4	50.4	44	29.3	1	3	90	0.00	30.549 
14:05	50.5	50.5	50.5	43	28.8	1	5	90	0.00	30.549 
14:10	50.7	50.7	50.7	45	30.1	1	3	112	0.00	30.549 
14:15	51.0	51.0	51.0	45	30.4	1	4	112	0.00	30.546 
14:20	51.0	51.0	51.0	43	29.3	1	4	112	0.00	30.546 
14:25	51.1	51.1	51.1	44	30.0	1	3	112	0.00	30.546 
14:30	51.1	51.1	51.1	43	29.4	1	3	112	0.00	30.538 
14:35	51.3	51.3	51.3	44	30.1	2	6	68	0.00	30.538 
14:40	51.3	51.3	51.3	43	29.6	2	4	90	0.00	30.538 
14:45	51.3	51.3	51.3	43	29.6	2	5	68	0.00	30.533 
14:50	51.4	51.4	51.4	42	29.1	1	4	68	0.00	30.533 
14:55	51.4	51.4	51.4	43	29.7	1	4	90	0.00	30.533 
15:00	51.4	51.4	51.4	42	29.1	2	4	90	0.00	30.532 
15:05	51.4	51.4	51.4	43	29.7	2	4	90	0.00	30.532 
15:10	51.6	51.6	51.6	42	29.3	1	3	90	0.00	30.532 
15:15	51.7	51.7	51.7	40	28.2	1	3	90	0.00	30.530 
15:20	52.0	52.0	52.0	41	29.0	0	2	90	0.00	30.530 
15:25	52.0	52.0	52.0	41	29.0	2	5	68	0.00	30.530 
15:30	51.7	51.7	51.7	42	29.4	2	4	90	0.00	30.528 
15:35	51.7	51.7	51.7	43	29.9	1	3	68	0.00	30.528 
15:40	51.7	51.7	51.7	43	29.9	2	5	68	0.00	30.528 
15:45	51.6	51.6	51.6	43	29.8	1	5	90	0.00	30.528 
15:50	51.6	51.6	51.6	44	30.4	1	2	90	0.00	30.528 
15:55	51.6	51.6	51.6	43	29.8	2	5	90	0.00	30.528 
16:00	51.6	51.6	51.6	44	30.4	1	5	90	0.00	30.526 
16:05	51.4	51.4	51.4	44	30.2	1	2	90	0.00	30.526 
16:10	51.4	51.4	51.4	44	30.2	2	4	90	0.00	30.526 
16:15	51.3	51.3	51.3	45	30.7	2	5	112	0.00	30.530 
16:20	51.1	51.1	51.1	46	31.0	2	3	112	0.00	30.530 
16:25	51.0	51.0	51.0	46	31.0	1	4	112	0.00	30.530 
16:30	51.0	51.0	51.0	46	31.0	1	3	112	0.00	30.531 
16:35	50.7	50.7	50.7	47	31.2	1	4	112	0.00	30.531 
16:40	50.5	50.5	50.5	48	31.5	0	2	112	0.00	30.531 
16:45	50.4	50.4	50.4	48	31.5	0	2	112	0.00	30.532 
16:50	50.1	50.1	50.1	49	31.7	0	2	112	0.00	30.532 
16:55	49.9	49.9	49.9	49	31.5	1	3	112	0.00	30.532 
17:00	49.8	49.8	49.8	50	31.9	0	1	112	0.00	30.531 
17:05	49.4	49.4	49.4	51	32.0	0	1	112	0.00	30.531 
17:10	48.9	48.9	48.9	52	32.1	0	1	112	0.00	30.531 
17:15	48.5	48.5	48.5	53	32.2	0	2	112	0.00	30.531 
17:20	48.2	48.2	48.2	54	32.3	0	1	112	0.00	30.531 
17:25	47.7	47.7	47.7	54	31.9	0	1	112	0.00	30.531 
17:30	47.1	47.1	47.1	54	31.3	0	0	---	0.00	30.532 
17:35	46.4	46.4	46.4	55	31.1	0	0	---	0.00	30.532 
17:40	45.7	45.7	45.7	57	31.3	0	0	---	0.00	30.532 
17:45	45.1	45.1	45.1	58	31.2	0	0	---	0.00	30.534 
17:50	44.3	44.3	44.3	59	30.9	0	0	---	0.00	30.534 
17:55	43.8	43.8	43.8	61	31.2	0	0	---	0.00	30.534 
18:00	43.2	43.2	43.2	62	31.1	0	0	---	0.00	30.536 
18:05	42.8	42.8	42.8	62	30.7	0	0	---	0.00	30.536 
18:10	42.2	42.2	42.2	63	30.5	0	0	---	0.00	30.536 
18:15	41.6	41.6	41.6	65	30.7	0	0	---	0.00	30.532 
18:20	41.2	41.2	41.2	66	30.7	0	0	---	0.00	30.532 
18:25	40.8	40.8	40.8	67	30.7	0	0	---	0.00	30.532 
18:30	40.3	40.3	40.3	68	30.6	0	0	---	0.00	30.539 
18:35	39.9	39.9	39.9	69	30.6	0	0	---	0.00	30.539 
18:40	39.8	39.8	39.8	70	30.8	0	0	---	0.00	30.539 
18:45	39.5	39.5	39.5	71	30.9	0	0	---	0.00	30.542 
18:50	39.2	39.2	39.2	71	30.6	0	0	---	0.00	30.542 
18:55	38.8	38.8	38.8	71	30.2	0	0	---	0.00	30.542 
19:00	38.3	38.3	38.3	73	30.4	0	0	---	0.00	30.542 
19:05	38.0	38.0	38.0	74	30.5	0	0	---	0.00	30.542 
19:10	37.8	37.8	37.8	75	30.6	0	0	---	0.00	30.542 
19:15	37.8	37.8	37.8	76	30.9	0	0	---	0.00	30.540 
19:20	37.8	37.8	37.8	76	30.9	0	0	---	0.00	30.540 
19:25	37.6	37.6	37.6	76	30.7	0	0	---	0.00	30.540 
19:30	37.5	37.5	37.5	76	30.6	0	0	---	0.00	30.536 
19:35	37.5	37.5	37.5	77	31.0	0	0	---	0.00	30.536 
19:40	37.6	37.6	37.6	77	31.1	0	0	---	0.00	30.536 
19:45	37.6	37.6	37.6	77	31.1	0	0	---	0.00	30.537 
19:50	37.3	37.3	37.3	77	30.8	0	0	---	0.00	30.537 
19:55	37.0	37.0	37.0	77	30.5	0	0	---	0.00	30.537 
20:00	36.8	36.8	36.8	78	30.6	0	0	---	0.00	30.543 
20:05	36.5	36.5	36.5	78	30.3	0	0	---	0.00	30.543 
20:10	36.3	36.3	36.3	79	30.4	0	0	---	0.00	30.543 
20:15	36.2	36.2	36.2	80	30.6	0	0	---	0.00	30.533 
20:20	36.0	36.0	36.0	80	30.4	0	0	---	0.00	30.533 
20:25	36.0	36.0	36.0	81	30.7	0	0	---	0.00	30.533 
20:30	36.2	36.2	36.2	81	30.9	0	0	---	0.00	30.533 
20:35	36.5	36.5	36.5	81	31.2	0	0	---	0.00	30.533 
20:40	36.8	36.8	36.8	80	31.2	0	0	---	0.00	30.533 
20:45	36.9	36.9	36.9	79	31.0	0	0	---	0.00	30.533 
20:50	36.9	36.9	36.9	79	31.0	0	0	---	0.00	30.533 
20:55	36.8	36.8	36.8	79	30.9	0	0	---	0.00	30.533 
21:00	36.8	36.8	36.8	79	30.9	0	0	---	0.00	30.531 
21:05	37.2	37.2	37.2	80	31.6	0	3	112	0.00	30.531 
21:10	38.2	38.2	38.2	77	31.6	1	3	112	0.00	30.531 
21:15	38.9	38.9	38.9	75	31.7	0	2	112	0.00	30.525 
21:20	39.2	39.2	39.2	74	31.6	1	4	112	0.00	30.525 
21:25	39.2	39.2	39.2	74	31.6	0	2	112	0.00	30.525 
21:30	39.1	39.1	39.1	74	31.5	0	1	112	0.00	30.526 
21:35	38.9	38.9	38.9	74	31.3	0	2	112	0.00	30.526 
21:40	38.8	38.8	38.8	74	31.2	0	1	112	0.00	30.526 
21:45	38.5	38.5	38.5	74	30.9	0	1	112	0.00	30.525 
21:50	38.5	38.5	38.5	75	31.3	0	1	112	0.00	30.525 
21:55	38.5	38.5	38.5	75	31.3	0	3	112	0.00	30.525 
22:00	38.5	38.5	38.5	75	31.3	0	2	112	0.00	30.522 
22:05	38.6	38.6	38.6	75	31.4	0	1	112	0.00	30.522 
22:10	38.5	38.5	38.5	75	31.3	0	1	112	0.00	30.522 
22:15	38.3	38.3	38.3	75	31.1	0	1	112	0.00	30.518 
22:20	38.3	38.3	38.3	75	31.1	0	1	112	0.00	30.518 
22:25	38.5	38.5	38.5	75	31.3	0	3	112	0.00	30.518 
22:30	38.3	38.3	38.3	75	31.1	0	2	112	0.00	30.519 
22:35	38.2	38.2	38.2	75	31.0	0	1	112	0.00	30.519 
22:40	38.0	38.0	38.0	76	31.1	0	2	112	0.00	30.519 
22:45	37.9	37.9	37.9	76	31.0	0	1	112	0.00	30.517 
22:50	37.6	37.6	37.6	77	31.1	0	1	112	0.00	30.517 
22:55	37.5	37.5	37.5	77	31.0	0	1	112	0.00	30.517 
23:00	37.5	37.5	37.5	77	31.0	0	2	112	0.00	30.517 
23:05	37.5	37.5	37.5	78	31.3	0	2	112	0.00	30.517 
23:10	37.3	37.3	37.3	78	31.1	0	2	112	0.00	30.517 
23:15	37.2	37.2	37.2	78	31.0	0	1	112	0.00	30.513 
23:20	37.0	37.0	37.0	79	31.1	0	1	112	0.00	30.513 
23:25	36.9	36.9	36.9	79	31.0	0	1	112	0.00	30.513 
23:30	36.8	36.8	36.8	80	31.2	0	1	112	0.00	30.513 
23:35	36.6	36.6	36.6	80	31.0	0	1	112	0.00	30.513 
23:40	36.5	36.5	36.5	81	31.2	0	1	112	0.00	30.513 
23:45	36.3	36.3	36.3	81	31.0	0	0	---	0.00	30.515 
23:50	36.2	36.2	36.2	81	30.9	0	0	---	0.00	30.515 
23:55	36.0	36.0	36.0	81	30.7	0	0	---	0.00	30.515 

CoCoRaHS
IN-AL-39
A2 Web Hosting
Creative Commons License
GoDaddy
search engine by freefind advanced

loaded 2018-11-13 17:19:38 • last modified 2010-11-18 10:43:29
Privacy PolicyDisclaimer
• wx.awcolley.com is powered by PmWiki v.2002016 •
• all content (unless otherwise noted) © 2018 A W Colley